| time (UTC) | temp C | wind direction | speed KPH | gust KPH | rain 1hr cm | rain 24hr cm | rain mn cm | humidity % | barometer mb |
| 20260510175720 | 28 | 214 | 3.2 | 8.0 | 0.00 | 0.00 | 0.00 | 77 | 1018.2 |
| 20260510174720 | 28 | 191 | 3.2 | 6.4 | 0.00 | 0.00 | 0.00 | 72 | 1018.2 |
| 20260510173819 | 28 | 108 | 1.6 | 4.8 | 0.00 | 0.00 | 0.00 | 71 | 1018.3 |
| 20260510172820 | 28 | 52 | 3.2 | 6.4 | 0.00 | 0.00 | 0.00 | 73 | 1018.3 |
| 20260510171821 | 28 | 34 | 1.6 | 6.4 | 0.00 | 0.00 | 0.00 | 75 | 1018.5 |
| 20260510170820 | 28 | 225 | 0.0 | 0.0 | 0.00 | 0.00 | 0.00 | 75 | 1018.6 |
| 20260510164822 | 28 | 315 | 0.0 | 1.6 | 0.00 | 0.00 | 0.00 | 74 | 1018.7 |
| 20260510162921 | 28 | 235 | 0.0 | 1.6 | 0.00 | 0.00 | 0.00 | 76 | 1018.8 |
| 20260510162018 | 28 | 85 | 1.6 | 3.2 | 0.00 | 0.00 | 0.00 | 77 | 1018.8 |
| 20260510161021 | 28 | 157 | 0.0 | 3.2 | 0.00 | 0.00 | 0.00 | 80 | 1018.9 |
| 20260510160120 | 27 | 144 | 0.0 | 1.6 | 0.00 | 0.00 | 0.00 | 80 | 1018.9 |
| 20260510155120 | 26 | 337 | 0.0 | 1.6 | 0.00 | 0.00 | 0.00 | 80 | 1018.9 |
| 20260510154121 | 26 | 90 | 0.0 | 1.6 | 0.00 | 0.00 | 0.00 | 81 | 1018.9 |
| 20260510153219 | 25 | 67 | 0.0 | 1.6 | 0.00 | 0.00 | 0.00 | 84 | 1018.8 |
| 20260510152219 | 25 | 45 | 1.6 | 3.2 | 0.00 | 0.00 | 0.00 | 88 | 1018.7 |
| 20260510151219 | 23 | 112 | 1.6 | 4.8 | 0.00 | 0.00 | 0.00 | 90 | 1018.8 |
| 20260510150220 | 23 | 67 | 1.6 | 3.2 | 0.00 | 0.00 | 0.00 | 94 | 1018.9 |
| 20260510145219 | 23 | 91 | 4.8 | 8.0 | 0.00 | 0.00 | 0.00 | 97 | 1019.1 |
| 20260510144220 | 23 | 54 | 3.2 | 6.4 | 0.00 | 0.00 | 0.00 | 98 | 1019.2 |
| 20260510142319 | 21 | 135 | 0.0 | 1.6 | 0.00 | 0.00 | 0.00 | 98 | 1019.1 |
| 20260510141319 | 21 | 90 | 0.0 | 0.0 | 0.00 | 0.00 | 0.00 | 99 | 1019.3 |
| 20260510135321 | 21 | 82 | 3.2 | 4.8 | 0.00 | 0.00 | 0.00 | 99 | 1019.0 |
| 20260510134419 | 21 | 45 | 0.0 | 0.0 | 0.00 | 0.00 | 0.00 | 99 | 1019.0 |
| 20260510133421 | 21 | 80 | 3.2 | 8.0 | 0.00 | 0.00 | 0.00 | 99 | 1018.7 |
| 20260510132419 | 21 | 104 | 1.6 | 4.8 | 0.00 | 0.00 | 0.00 | 98 | 1018.8 |
| 20260510131420 | 20 | 90 | 0.0 | 0.0 | 0.00 | 0.00 | 0.00 | 99 | 1018.8 |
| 20260510130519 | 20 | 74 | 0.0 | 1.6 | 0.00 | 0.00 | 0.00 | 99 | 1018.4 |
| 20260510125520 | 20 | 142 | 0.0 | 0.0 | 0.00 | 0.00 | 0.00 | 99 | 1018.5 |
| 20260510123521 | 20 | 81 | 4.8 | 8.0 | 0.00 | 0.00 | 0.00 | 99 | 1018.4 |
| 20260510122520 | 20 | 67 | 3.2 | 6.4 | 0.00 | 0.00 | 0.00 | 98 | 1018.2 |
| 20260510121519 | 20 | 67 | 1.6 | 6.4 | 0.00 | 0.00 | 0.00 | 99 | 1018.0 |
| 20260510120518 | 20 | 79 | 3.2 | 4.8 | 0.00 | 0.00 | 0.00 | 99 | 1017.7 |
| 20260510115520 | 20 | 90 | 0.0 | 0.0 | 0.00 | 0.00 | 0.00 | 99 | 1017.5 |
| 20260510114520 | 20 | 90 | 0.0 | 0.0 | 0.00 | 0.00 | 0.00 | 99 | 1017.4 |
| 20260510113520 | 20 | 67 | 0.0 | 3.2 | 0.00 | 0.00 | 0.00 | 99 | 1017.1 |
| 20260510112520 | 20 | 90 | 0.0 | 1.6 | 0.00 | 0.00 | 0.00 | 99 | 1017.0 |
| 20260510111520 | 20 | 67 | 0.0 | 0.0 | 0.00 | 0.00 | 0.00 | 99 | 1016.7 |
| 20260510110520 | 20 | 67 | 0.0 | 0.0 | 0.00 | 0.00 | 0.00 | 99 | 1016.4 |
| 20260510105519 | 20 | 90 | 0.0 | 0.0 | 0.00 | 0.00 | 0.00 | 99 | 1016.1 |
| 20260510104521 | 20 | 90 | 0.0 | 0.0 | 0.00 | 0.00 | 0.00 | 99 | 1015.9 |
| 20260510101618 | 20 | 90 | 0.0 | 0.0 | 0.00 | 0.00 | 0.00 | 98 | 1015.7 |
| 20260510100619 | 20 | 90 | 0.0 | 3.2 | 0.00 | 0.00 | 0.00 | 98 | 1015.7 |
| 20260510095634 | 20 | 91 | 1.6 | 3.2 | 0.00 | 0.00 | 0.00 | 99 | 1015.5 |
| 20260510092718 | 20 | 90 | 0.0 | 0.0 | 0.00 | 0.00 | 0.00 | 99 | 1015.4 |
| 20260510091721 | 20 | 90 | 0.0 | 0.0 | 0.00 | 0.00 | 0.00 | 98 | 1015.4 |
| 20260510090819 | 20 | 90 | 0.0 | 0.0 | 0.00 | 0.00 | 0.00 | 99 | 1015.6 |
| 20260510085820 | 20 | 90 | 0.0 | 0.0 | 0.00 | 0.00 | 0.00 | 99 | 1015.6 |
| 20260510084822 | 20 | 67 | 0.0 | 0.0 | 0.00 | 0.00 | 0.00 | 99 | 1015.6 |
| 20260510082820 | 20 | 67 | 0.0 | 0.0 | 0.00 | 0.00 | 0.00 | 99 | 1015.5 |
| 20260510081820 | 20 | 67 | 0.0 | 0.0 | 0.00 | 0.00 | 0.00 | 99 | 1015.4 |
| 20260510074819 | 20 | 67 | 1.6 | 3.2 | 0.00 | 0.00 | 0.00 | 99 | 1015.1 |
| 20260510073820 | 20 | 67 | 0.0 | 0.0 | 0.00 | 0.00 | 0.00 | 99 | 1015.0 |
| 20260510072819 | 20 | 67 | 0.0 | 1.6 | 0.00 | 0.00 | 0.00 | 99 | 1015.0 |
| 20260510071820 | 20 | 67 | 0.0 | 0.0 | 0.00 | 0.00 | 0.00 | 99 | 1015.0 |
| 20260510070919 | 20 | 67 | 0.0 | 0.0 | 0.00 | 0.00 | 0.00 | 99 | 1015.0 |
| 20260510065921 | 20 | 67 | 0.0 | 0.0 | 0.00 | 0.00 | 0.00 | 98 | 1015.0 |
| 20260510065019 | 20 | 90 | 0.0 | 1.6 | 0.00 | 0.00 | 0.00 | 99 | 1015.0 |
| 20260510064019 | 20 | 45 | 0.0 | 0.0 | 0.00 | 0.00 | 0.00 | 99 | 1015.3 |
| 20260510063021 | 20 | 292 | 0.0 | 0.0 | 0.00 | 0.00 | 0.00 | 97 | 1015.4 |
| 20260510062021 | 20 | 292 | 0.0 | 0.0 | 0.00 | 0.00 | 0.00 | 98 | 1015.3 |
| 20260510061119 | 20 | 292 | 0.0 | 0.0 | 0.00 | 0.00 | 0.00 | 98 | 1015.4 |
| 20260510060120 | 20 | 292 | 0.0 | 0.0 | 0.00 | 0.00 | 0.00 | 98 | 1015.3 |
| 20260510055219 | 20 | 292 | 0.0 | 0.0 | 0.00 | 0.00 | 0.00 | 98 | 1015.3 |
| 20260510054220 | 20 | 292 | 0.0 | 0.0 | 0.00 | 0.00 | 0.00 | 98 | 1015.4 |
| 20260510053319 | 20 | 292 | 0.0 | 0.0 | 0.00 | 0.03 | 0.00 | 98 | 1015.2 |
| 20260510052321 | 20 | 292 | 0.0 | 0.0 | 0.00 | 0.03 | 0.00 | 97 | 1015.4 |
| 20260510051321 | 20 | 292 | 0.0 | 0.0 | 0.00 | 0.03 | 0.00 | 98 | 1015.3 |
| 20260510050319 | 20 | 292 | 0.0 | 0.0 | 0.00 | 0.03 | 0.00 | 98 | 1015.4 |
| 20260510045320 | 20 | 292 | 0.0 | 0.0 | 0.00 | 0.03 | 0.03 | 98 | 1015.4 |
| 20260510044420 | 20 | 292 | 0.0 | 0.0 | 0.00 | 0.03 | 0.03 | 98 | 1015.3 |
| 20260510043422 | 20 | 292 | 0.0 | 0.0 | 0.00 | 0.03 | 0.03 | 98 | 1015.2 |
| 20260510042421 | 21 | 292 | 0.0 | 0.0 | 0.00 | 0.03 | 0.03 | 98 | 1015.3 |
| 20260510041521 | 21 | 292 | 0.0 | 0.0 | 0.00 | 0.03 | 0.03 | 97 | 1015.3 |
| 20260510035620 | 21 | 67 | 0.0 | 0.0 | 0.00 | 0.03 | 0.03 | 98 | 1014.6 |
| 20260510034720 | 21 | 67 | 1.6 | 3.2 | 0.00 | 0.03 | 0.03 | 97 | 1015.0 |
| 20260510031721 | 21 | 45 | 0.0 | 1.6 | 0.00 | 0.03 | 0.03 | 97 | 1015.9 |
| 20260510030722 | 21 | 30 | 0.0 | 0.0 | 0.00 | 0.03 | 0.03 | 98 | 1015.8 |
| 20260510025821 | 21 | 45 | 0.0 | 0.0 | 0.00 | 0.03 | 0.03 | 98 | 1015.8 |
| 20260510024822 | 21 | 62 | 0.0 | 0.0 | 0.00 | 0.03 | 0.03 | 97 | 1015.4 |
| 20260510023820 | 21 | 90 | 0.0 | 0.0 | 0.00 | 0.03 | 0.03 | 98 | 1015.3 |
| 20260510022822 | 21 | 180 | 0.0 | 0.0 | 0.00 | 0.03 | 0.03 | 98 | 1015.3 |
| 20260510021821 | 21 | 180 | 0.0 | 0.0 | 0.00 | 0.03 | 0.03 | 98 | 1015.2 |
| 20260510020821 | 21 | 180 | 0.0 | 0.0 | 0.00 | 0.03 | 0.03 | 98 | 1015.4 |
| 20260510015823 | 21 | 270 | 0.0 | 0.0 | 0.00 | 0.03 | 0.03 | 98 | 1015.6 |
| 20260510014920 | 21 | 270 | 0.0 | 1.6 | 0.00 | 0.03 | 0.03 | 98 | 1015.2 |
| 20260510013921 | 21 | 270 | 0.0 | 0.0 | 0.00 | 0.03 | 0.03 | 97 | 1014.4 |
| 20260510012923 | 21 | 268 | 0.0 | 3.2 | 0.00 | 0.03 | 0.03 | 98 | 1014.2 |
| 20260510011922 | 21 | 270 | 0.0 | 0.0 | 0.00 | 0.03 | 0.03 | 98 | 1014.2 |
| 20260510010920 | 21 | 292 | 0.0 | 0.0 | 0.00 | 0.03 | 0.03 | 98 | 1014.4 |
| 20260510005921 | 21 | 67 | 0.0 | 1.6 | 0.00 | 0.03 | 0.03 | 98 | 1014.2 |
| 20260510003922 | 21 | 360 | 0.0 | 1.6 | 0.00 | 0.03 | 0.03 | 98 | 1014.8 |
| 20260510003020 | 21 | 242 | 3.2 | 4.8 | 0.00 | 0.03 | 0.03 | 98 | 1014.7 |
| 20260510002021 | 21 | 67 | 0.0 | 0.0 | 0.00 | 0.03 | 0.03 | 98 | 1013.9 |
| 20260510001119 | 21 | 337 | 0.0 | 0.0 | 0.00 | 0.03 | 0.03 | 97 | 1013.9 |
| 20260510000122 | 21 | 67 | 0.0 | 1.6 | 0.00 | 0.03 | 0.03 | 98 | 1014.1 |
| 20260509235122 | 21 | 247 | 0.0 | 0.0 | 0.00 | 0.03 | 0.03 | 98 | 1014.8 |
| 20260509234121 | 21 | 292 | 0.0 | 0.0 | 0.00 | 0.03 | 0.03 | 98 | 1014.5 |
| 20260509233120 | 21 | 315 | 0.0 | 0.0 | 0.00 | 0.03 | 0.03 | 98 | 1014.6 |
| 20260509232120 | 21 | 315 | 0.0 | 0.0 | 0.00 | 0.03 | 0.03 | 97 | 1014.6 |
| 20260509231121 | 21 | 315 | 0.0 | 0.0 | 0.00 | 0.03 | 0.03 | 98 | 1014.5 |
| 20260509225120 | 21 | 315 | 0.0 | 0.0 | 0.00 | 0.03 | 0.03 | 97 | 1014.6 |
| 20260509224219 | 20 | 315 | 0.0 | 0.0 | 0.00 | 0.03 | 0.03 | 98 | 1014.0 |
| 20260509223222 | 20 | 225 | 0.0 | 1.6 | 0.00 | 0.03 | 0.03 | 98 | 1013.8 |
| 20260509221221 | 20 | 247 | 0.0 | 0.0 | 0.00 | 0.03 | 0.03 | 98 | 1014.1 |
| 20260509220223 | 20 | 225 | 1.6 | 6.4 | 0.00 | 0.03 | 0.03 | 98 | 1014.3 |
| 20260509215220 | 20 | 225 | 0.0 | 0.0 | 0.00 | 0.03 | 0.03 | 97 | 1014.1 |
| 20260509214222 | 20 | 180 | 0.0 | 0.0 | 0.00 | 0.03 | 0.03 | 98 | 1013.9 |
| 20260509213321 | 20 | 180 | 0.0 | 0.0 | 0.00 | 0.03 | 0.03 | 98 | 1014.0 |
| 20260509212320 | 20 | 180 | 0.0 | 3.2 | 0.00 | 0.03 | 0.03 | 97 | 1013.8 |
| 20260509211320 | 20 | 270 | 0.0 | 0.0 | 0.00 | 0.03 | 0.03 | 98 | 1013.8 |
| 20260509210322 | 20 | 270 | 3.2 | 3.2 | 0.00 | 0.03 | 0.03 | 98 | 1013.0 |
| 20260509205420 | 20 | 23 | 1.6 | 1.6 | 0.00 | 0.03 | 0.03 | 97 | 1012.6 |
| 20260509204422 | 20 | 202 | 0.0 | 1.6 | 0.00 | 0.03 | 0.03 | 98 | 1013.4 |
| 20260509203520 | 20 | 226 | 1.6 | 4.8 | 0.00 | 0.03 | 0.03 | 98 | 1013.5 |
| 20260509202521 | 20 | 45 | 0.0 | 0.0 | 0.00 | 0.03 | 0.03 | 98 | 1013.6 |
| 20260509201620 | 20 | 56 | 3.2 | 6.4 | 0.00 | 0.03 | 0.03 | 98 | 1013.8 |
| 20260509200622 | 20 | 45 | 1.6 | 3.2 | 0.00 | 0.03 | 0.03 | 98 | 1014.6 |
| 20260509195623 | 20 | 181 | 3.2 | 4.8 | 0.00 | 0.03 | 0.03 | 98 | 1015.1 |
| 20260509193720 | 20 | 259 | 1.6 | 1.6 | 0.00 | 0.03 | 0.03 | 98 | 1014.8 |
| 20260509192721 | 20 | 59 | 1.6 | 8.0 | 0.00 | 0.03 | 0.03 | 97 | 1014.5 |
| 20260509191721 | 20 | 270 | 0.0 | 0.0 | 0.00 | 0.03 | 0.03 | 97 | 1015.1 |
| 20260509190720 | 20 | 2 | 0.0 | 1.6 | 0.00 | 0.03 | 0.03 | 98 | 1014.9 |
| 20260509185736 | 20 | 348 | 0.0 | 1.6 | 0.00 | 0.03 | 0.03 | 98 | 1014.8 |
| 20260509184720 | 20 | 45 | 0.0 | 1.6 | 0.00 | 0.03 | 0.03 | 98 | 1014.8 |
| 20260509183820 | 19 | 180 | 0.0 | 0.0 | 0.00 | 0.03 | 0.03 | 98 | 1015.1 |
| 20260509182919 | 19 | 225 | 0.0 | 3.2 | 0.00 | 0.03 | 0.03 | 98 | 1015.4 |
| 20260509181921 | 19 | 45 | 0.0 | 0.0 | 0.00 | 0.03 | 0.03 | 98 | 1014.8 |
| 20260509180921 | 19 | 67 | 1.6 | 4.8 | 0.00 | 0.03 | 0.03 | 98 | 1014.6 |